Time;durP1;ratioP1;P1;durP2;ratioP2;P2;SDS_P1;SDS_P2;PMS_P1;PMS_P2;Temp;Humidity;BMP_temperature;BMP_pressure;BME280_temperature;BME280_humidity;BME280_pressure;Samples;Min_cycle;Max_cycle;Signal;HPM_P1;HPM_P2
2023/04/16 00:01:03;;;;;;;23.33;6.47;;;;;;;8.59;100.00;101542.69;5038278;28;20044;-89
2023/04/16 00:03:29;;;;;;;21.60;6.43;;;;;;;8.68;100.00;101556.47;5026671;28;20489;-88
2023/04/16 00:05:57;;;;;;;22.77;5.60;;;;;;;8.63;100.00;101567.88;5038158;28;20402;-88
2023/04/16 00:08:23;;;;;;;29.85;6.25;;;;;;;8.72;100.00;101562.50;5037146;28;20060;-88
2023/04/16 00:10:52;;;;;;;28.83;7.15;;;;;;;8.94;100.00;101570.81;5055112;28;20055;-89
2023/04/16 00:13:19;;;;;;;23.10;6.45;;;;;;;8.53;100.00;101548.88;5037274;28;20060;-88
2023/04/16 00:15:46;;;;;;;22.20;5.70;;;;;;;9.10;100.00;101585.38;5055719;28;20388;-88
2023/04/16 00:18:13;;;;;;;26.10;7.60;;;;;;;8.72;100.00;101558.13;5054216;28;20041;-88
2023/04/16 00:20:40;;;;;;;17.50;6.07;;;;;;;8.67;100.00;101531.25;5037434;28;20049;-89
2023/04/16 00:23:06;;;;;;;21.27;6.32;;;;;;;8.63;100.00;101542.63;5041616;28;20052;-88
2023/04/16 00:25:33;;;;;;;26.13;7.25;;;;;;;8.64;100.00;101535.66;5060303;28;20056;-89
2023/04/16 00:28:00;;;;;;;27.33;7.32;;;;;;;8.92;100.00;101596.13;5042172;28;20441;-89
2023/04/16 00:30:27;;;;;;;21.58;6.78;;;;;;;8.54;100.00;101541.03;5045898;28;20044;-89
2023/04/16 00:32:53;;;;;;;20.10;6.90;;;;;;;8.56;100.00;101527.97;5041337;28;20059;-89
2023/04/16 00:35:20;;;;;;;23.38;6.82;;;;;;;8.32;100.00;101503.97;5041815;28;20045;-88
2023/04/16 00:37:47;;;;;;;25.40;9.45;;;;;;;8.58;100.00;101544.47;5041816;28;20486;-90
2023/04/16 00:40:14;;;;;;;28.95;9.90;;;;;;;8.14;100.00;101506.84;5041620;28;20056;-88
2023/04/16 00:42:40;;;;;;;25.95;7.00;;;;;;;8.45;100.00;101522.91;5040354;28;20048;-89
2023/04/16 00:45:08;;;;;;;16.98;5.95;;;;;;;8.63;100.00;101524.34;5040970;28;20041;-89
2023/04/16 00:47:35;;;;;;;28.40;8.75;;;;;;;8.26;100.00;101503.19;5054001;28;20045;-88
2023/04/16 00:50:03;;;;;;;20.58;8.57;;;;;;;8.32;100.00;101532.66;5049388;28;20081;-89
2023/04/16 00:52:33;;;;;;;31.98;8.98;;;;;;;8.32;100.00;101531.78;5034786;28;20057;-89
2023/04/16 00:55:00;;;;;;;25.85;8.15;;;;;;;8.45;100.00;101532.50;5040206;28;20064;-86
2023/04/16 00:57:27;;;;;;;26.60;8.75;;;;;;;8.64;100.00;101565.25;5040671;28;20049;-89
2023/04/16 00:59:55;;;;;;;41.25;9.27;;;;;;;8.36;100.00;101518.69;5058803;28;20057;-89
2023/04/16 01:02:22;;;;;;;30.08;10.70;;;;;;;8.67;100.00;101543.44;5040456;28;20056;-89
2023/04/16 01:04:50;;;;;;;21.33;7.57;;;;;;;8.41;100.00;101515.13;5055579;28;20433;-89
2023/04/16 01:07:17;;;;;;;27.00;9.43;;;;;;;8.33;100.00;101516.09;5041180;28;20041;-89
2023/04/16 01:09:44;;;;;;;23.25;6.47;;;;;;;8.97;100.00;101577.75;5041790;28;20051;-89
2023/04/16 01:12:10;;;;;;;16.65;5.50;;;;;;;8.92;100.00;101560.44;5041107;28;20041;-90
2023/04/16 01:14:37;;;;;;;25.17;8.55;;;;;;;8.68;100.00;101525.16;5042058;28;20053;-89
2023/04/16 01:17:04;;;;;;;26.80;7.60;;;;;;;8.84;100.00;101535.34;5060309;28;20048;-90
2023/04/16 01:19:31;;;;;;;26.65;7.72;;;;;;;8.86;100.00;101557.06;5059261;28;20044;-90
2023/04/16 01:21:58;;;;;;;31.15;8.35;;;;;;;8.61;100.00;101507.00;5050590;28;20052;-89
2023/04/16 01:24:25;;;;;;;25.30;7.57;;;;;;;8.62;100.00;101516.56;5058990;28;20045;-89
2023/04/16 01:26:52;;;;;;;17.65;6.07;;;;;;;8.86;100.00;101567.50;5041170;28;20048;-89
2023/04/16 01:29:19;;;;;;;20.27;5.90;;;;;;;9.03;100.00;101546.28;5041189;28;20414;-88
2023/04/16 01:31:45;;;;;;;20.75;7.07;;;;;;;8.73;100.00;101538.13;5041047;28;20045;-89
2023/04/16 01:34:12;;;;;;;37.38;10.43;;;;;;;8.71;100.00;101530.31;5059457;28;20052;-89
2023/04/16 01:36:39;;;;;;;24.50;9.68;;;;;;;8.77;100.00;101542.41;5059144;28;20068;-88
2023/04/16 01:39:06;;;;;;;23.02;7.72;;;;;;;8.68;100.00;101509.47;5039468;28;20376;-89
2023/04/16 01:41:33;;;;;;;23.65;6.80;;;;;;;8.79;100.00;101550.22;5040048;28;20053;-88
2023/04/16 01:44:00;;;;;;;24.80;8.30;;;;;;;9.02;100.00;101600.28;5040894;28;20108;-88
2023/04/16 01:46:29;;;;;;;28.42;9.05;;;;;;;8.67;100.00;101510.34;5057915;28;20060;-89
2023/04/16 01:48:57;;;;;;;17.27;7.13;;;;;;;8.80;100.00;101547.59;5040082;28;20048;-89
2023/04/16 01:51:24;;;;;;;20.75;7.82;;;;;;;8.75;100.00;101554.63;5039772;28;20163;-88
2023/04/16 01:53:50;;;;;;;37.85;9.57;;;;;;;8.85;100.00;101540.53;5040774;28;20056;-88
2023/04/16 01:56:17;;;;;;;25.05;8.10;;;;;;;8.69;100.00;101547.78;5040132;28;20056;-86
2023/04/16 01:58:45;;;;;;;19.13;7.43;;;;;;;9.11;100.00;101589.69;5057811;28;20057;-88
2023/04/16 02:01:12;;;;;;;17.35;5.18;;;;;;;9.21;100.00;101592.16;5039871;28;20053;-89
2023/04/16 02:03:40;;;;;;;18.13;5.60;;;;;;;9.28;100.00;101562.41;5048702;28;20047;-89
2023/04/16 02:06:07;;;;;;;20.05;6.18;;;;;;;9.06;100.00;101554.94;5052803;28;20088;-89
2023/04/16 02:08:34;;;;;;;27.05;7.97;;;;;;;8.69;100.00;101518.16;5039846;28;20120;-89
2023/04/16 02:11:01;;;;;;;23.55;6.95;;;;;;;9.06;100.00;101534.03;5039808;28;20045;-90
2023/04/16 02:13:27;;;;;;;21.92;7.43;;;;;;;8.78;100.00;101510.16;5041096;28;20049;-89
2023/04/16 02:15:54;;;;;;;19.92;6.05;;;;;;;8.87;100.00;101498.69;5049773;28;20498;-90
2023/04/16 02:18:21;;;;;;;20.35;5.60;;;;;;;9.26;100.00;101538.91;5058322;28;20057;-90
2023/04/16 02:20:48;;;;;;;24.10;7.45;;;;;;;9.17;100.00;101532.97;5049284;28;20055;-88
2023/04/16 02:23:15;;;;;;;20.52;7.80;;;;;;;9.17;100.00;101530.38;5040147;28;20048;-89
2023/04/16 02:25:44;;;;;;;16.98;5.85;;;;;;;9.16;100.00;101503.38;5041200;28;20586;-89
2023/04/16 02:28:14;;;;;;;24.90;8.13;;;;;;;9.45;100.00;101570.75;5057674;28;20131;-89
2023/04/16 02:30:41;;;;;;;23.38;6.15;;;;;;;9.52;100.00;101573.25;5041560;28;20048;-90
2023/04/16 02:33:10;;;;;;;22.50;6.30;;;;;;;9.18;100.00;101521.66;5041553;28;20049;-89
2023/04/16 02:35:38;;;;;;;17.95;5.88;;;;;;;9.38;100.00;101548.25;5041588;28;20052;-89
2023/04/16 02:38:05;;;;;;;21.60;6.85;;;;;;;9.37;100.00;101543.91;5042547;28;20045;-89
2023/04/16 02:40:32;;;;;;;18.13;5.95;;;;;;;9.25;100.00;101524.09;5042773;28;20048;-90
2023/04/16 02:42:59;;;;;;;27.38;9.20;;;;;;;9.01;100.00;101530.69;5058399;28;20063;-88
2023/04/16 02:45:26;;;;;;;28.98;8.07;;;;;;;9.02;100.00;101500.19;5057246;28;20201;-90
2023/04/16 02:47:53;;;;;;;31.77;9.80;;;;;;;9.11;100.00;101529.59;5040630;28;20060;-89
2023/04/16 02:50:20;;;;;;;21.50;7.57;;;;;;;9.02;100.00;101482.75;5056885;28;20056;-89
2023/04/16 02:52:47;;;;;;;17.00;6.40;;;;;;;9.15;100.00;101500.81;5038781;28;20049;-89
2023/04/16 02:55:14;;;;;;;20.23;7.15;;;;;;;9.11;100.00;101492.16;5039107;28;20087;-88
2023/04/16 02:57:41;;;;;;;22.80;7.50;;;;;;;9.11;100.00;101519.13;5038618;28;20402;-89
2023/04/16 03:00:08;;;;;;;19.73;6.43;;;;;;;9.24;100.00;101545.03;5055725;28;20143;-88
2023/04/16 03:02:35;;;;;;;16.92;5.70;;;;;;;9.11;100.00;101493.00;5039447;28;20057;-88
2023/04/16 03:05:03;;;;;;;17.98;5.90;;;;;;;9.45;100.00;101555.06;5056481;28;20079;-88
2023/04/16 03:07:29;;;;;;;21.70;7.28;;;;;;;9.04;100.00;101467.06;5038422;28;20041;-88
2023/04/16 03:09:56;;;;;;;22.05;6.43;;;;;;;9.10;100.00;101498.25;5038573;28;20056;-89
2023/04/16 03:12:23;;;;;;;20.77;6.40;;;;;;;9.37;100.00;101514.31;5034989;28;20060;-89
2023/04/16 03:14:51;;;;;;;13.60;5.10;;;;;;;9.56;100.00;101544.41;5030582;28;20052;-89
2023/04/16 03:17:18;;;;;;;15.30;5.47;;;;;;;9.56;100.00;101547.03;5057024;28;20045;-88
2023/04/16 03:19:45;;;;;;;18.25;4.80;;;;;;;9.45;100.00;101510.63;5056973;28;20049;-89
2023/04/16 03:22:11;;;;;;;25.45;7.25;;;;;;;9.28;100.00;101531.03;5055973;28;20063;-89
2023/04/16 03:24:38;;;;;;;21.90;8.30;;;;;;;9.03;100.00;101513.22;5038146;28;20056;-89
2023/04/16 03:27:05;;;;;;;13.98;5.55;;;;;;;8.94;100.00;101476.78;5034999;28;20099;-87
2023/04/16 03:29:32;;;;;;;15.70;5.28;;;;;;;9.12;100.00;101492.13;5034176;28;20045;-89
2023/04/16 03:31:58;;;;;;;19.40;6.35;;;;;;;9.29;100.00;101509.22;5035396;28;20040;-88
2023/04/16 03:34:25;;;;;;;18.30;6.55;;;;;;;9.01;100.00;101454.94;5042095;28;20132;-89
2023/04/16 03:36:52;;;;;;;17.95;6.88;;;;;;;8.97;100.00;101492.41;5040147;28;20571;-89
2023/04/16 03:39:19;;;;;;;20.48;6.18;;;;;;;9.28;100.00;101534.50;5056068;28;20057;-88
2023/04/16 03:41:46;;;;;;;22.48;5.97;;;;;;;9.10;100.00;101503.50;5055016;28;20049;-88
2023/04/16 03:44:12;;;;;;;13.68;4.80;;;;;;;9.01;100.00;101480.16;5038040;28;20056;-88
2023/04/16 03:46:39;;;;;;;13.80;5.22;;;;;;;9.09;100.00;101491.34;5035220;28;20049;-89
2023/04/16 03:49:06;;;;;;;22.95;8.00;;;;;;;8.91;100.00;101500.38;5032812;28;20045;-89
2023/04/16 03:51:34;;;;;;;17.85;6.10;;;;;;;8.73;100.00;101458.06;5054360;28;20045;-90
2023/04/16 03:54:01;;;;;;;20.40;6.80;;;;;;;8.71;100.00;101467.66;5040081;28;20053;-90
2023/04/16 03:56:27;;;;;;;15.57;6.13;;;;;;;8.81;100.00;101465.72;5047783;28;20063;-89
2023/04/16 03:58:54;;;;;;;19.52;7.63;;;;;;;9.01;100.00;101501.06;5035636;28;20045;-87
2023/04/16 04:01:21;;;;;;;23.95;6.55;;;;;;;8.98;100.00;101524.63;5043867;28;20401;-89
2023/04/16 04:03:48;;;;;;;17.52;6.13;;;;;;;8.81;100.00;101470.09;5057548;28;20048;-89
2023/04/16 04:06:15;;;;;;;15.85;6.25;;;;;;;8.98;100.00;101501.09;5057217;28;20108;-89
2023/04/16 04:08:42;;;;;;;16.65;6.10;;;;;;;8.89;100.00;101473.44;5038489;28;20055;-89
2023/04/16 04:11:09;;;;;;;23.10;7.45;;;;;;;9.02;100.00;101521.06;5055427;28;20049;-89
2023/04/16 04:13:35;;;;;;;21.90;8.43;;;;;;;8.86;100.00;101483.94;5038923;28;20111;-89
2023/04/16 04:16:03;;;;;;;24.25;7.70;;;;;;;8.78;100.00;101464.94;5045961;28;20044;-89
2023/04/16 04:18:30;;;;;;;19.35;5.70;;;;;;;8.93;100.00;101491.63;5038903;28;20057;-89
2023/04/16 04:20:57;;;;;;;27.15;9.43;;;;;;;8.77;100.00;101479.75;5038456;28;20052;-89
2023/04/16 04:23:24;;;;;;;24.38;8.80;;;;;;;8.62;100.00;101472.16;5037652;28;20057;-89
2023/04/16 04:25:50;;;;;;;19.38;6.65;;;;;;;8.61;100.00;101452.19;5034651;28;20045;-88
2023/04/16 04:28:17;;;;;;;26.77;8.63;;;;;;;9.05;100.00;101490.53;5030584;28;20474;-88
2023/04/16 04:30:44;;;;;;;23.58;9.40;;;;;;;8.60;100.00;101466.13;5055023;28;20053;-89
2023/04/16 04:33:11;;;;;;;33.35;10.80;;;;;;;8.68;100.00;101486.00;5054811;28;20116;-89
2023/04/16 04:35:38;;;;;;;24.52;8.13;;;;;;;8.71;100.00;101464.16;5033359;28;20091;-86
2023/04/16 04:38:04;;;;;;;18.15;7.03;;;;;;;8.49;100.00;101448.03;5024370;28;20397;-85
2023/04/16 04:40:31;;;;;;;21.55;7.20;;;;;;;8.62;100.00;101444.31;5052080;28;20457;-86
2023/04/16 04:42:58;;;;;;;20.60;8.05;;;;;;;8.79;100.00;101490.16;5034268;28;20048;-87
2023/04/16 04:45:25;;;;;;;24.25;9.90;;;;;;;8.57;100.00;101456.63;5052822;28;20045;-86
2023/04/16 04:47:52;;;;;;;17.63;5.65;;;;;;;8.87;100.00;101485.63;5036786;28;20090;-89
2023/04/16 04:50:20;;;;;;;22.20;8.40;;;;;;;8.71;100.00;101465.06;5037809;28;20402;-88
2023/04/16 04:52:47;;;;;;;21.63;7.20;;;;;;;9.05;100.00;101528.88;5037951;28;20051;-90
2023/04/16 04:55:14;;;;;;;17.95;7.22;;;;;;;8.97;100.00;101502.00;5038152;28;20060;-89
2023/04/16 04:57:41;;;;;;;22.85;7.32;;;;;;;8.83;100.00;101476.16;5038285;28;20049;-89
2023/04/16 05:00:09;;;;;;;17.92;7.28;;;;;;;9.25;100.00;101534.56;5038650;28;20053;-89
2023/04/16 05:02:35;;;;;;;17.00;7.00;;;;;;;8.96;100.00;101485.50;5037401;28;20599;-89
2023/04/16 05:05:04;;;;;;;19.90;6.90;;;;;;;9.26;100.00;101541.53;5056175;28;20057;-89
2023/04/16 05:07:31;;;;;;;15.57;6.82;;;;;;;8.73;100.00;101494.59;5056035;28;20049;-88
2023/04/16 05:09:57;;;;;;;22.80;8.02;;;;;;;8.54;100.00;101481.00;5040418;28;20053;-88
2023/04/16 05:12:24;;;;;;;27.13;8.27;;;;;;;8.93;100.00;101514.28;5038866;28;20044;-88
2023/04/16 05:14:51;;;;;;;20.25;7.20;;;;;;;8.79;100.00;101487.56;5058086;28;20048;-88
2023/04/16 05:17:18;;;;;;;19.48;7.30;;;;;;;9.02;100.00;101514.09;5058294;28;20057;-87
2023/04/16 05:19:44;;;;;;;17.73;8.15;;;;;;;8.91;100.00;101501.22;5040802;28;20099;-89
2023/04/16 05:22:11;;;;;;;23.90;7.93;;;;;;;8.82;100.00;101471.81;5039098;28;20064;-87
2023/04/16 05:24:38;;;;;;;22.73;7.35;;;;;;;8.88;100.00;101490.84;5040496;28;20056;-89
2023/04/16 05:27:05;;;;;;;19.30;7.22;;;;;;;8.89;100.00;101496.94;5041222;28;20052;-88
2023/04/16 05:29:32;;;;;;;33.28;10.23;;;;;;;8.83;100.00;101491.81;5058600;28;20059;-88
2023/04/16 05:31:58;;;;;;;19.75;7.93;;;;;;;8.74;100.00;101457.13;5040297;28;20498;-88
2023/04/16 05:34:26;;;;;;;28.73;9.65;;;;;;;8.90;100.00;101489.06;5059176;28;20049;-89
2023/04/16 05:36:53;;;;;;;22.15;8.88;;;;;;;9.25;100.00;101549.38;5040749;28;20048;-89
2023/04/16 05:39:20;;;;;;;18.90;7.90;;;;;;;9.11;100.00;101513.06;5058934;28;20057;-89
2023/04/16 05:41:47;;;;;;;18.80;7.05;;;;;;;9.08;100.00;101511.38;5059877;28;20036;-89
2023/04/16 05:44:14;;;;;;;22.30;7.28;;;;;;;8.90;100.00;101477.75;5043531;28;20092;-89
2023/04/16 05:46:40;;;;;;;16.30;5.43;;;;;;;9.18;100.00;101512.06;5052302;28;20056;-88
2023/04/16 05:49:09;;;;;;;23.10;6.47;;;;;;;8.84;100.00;101463.06;5041073;28;20041;-88
2023/04/16 05:51:36;;;;;;;16.90;6.57;;;;;;;9.22;100.00;101510.25;5057219;28;20087;-88
2023/04/16 05:54:03;;;;;;;18.33;5.93;;;;;;;9.07;100.00;101493.13;5058142;28;20053;-88
2023/04/16 05:56:30;;;;;;;14.45;5.75;;;;;;;9.07;100.00;101504.44;5058435;28;20445;-89
2023/04/16 05:58:57;;;;;;;17.80;6.28;;;;;;;8.77;100.00;101473.66;5036451;28;20120;-87
2023/04/16 06:01:24;;;;;;;24.25;10.32;;;;;;;8.72;100.00;101487.66;5043730;28;20060;-88
2023/04/16 06:03:51;;;;;;;22.02;8.45;;;;;;;8.88;100.00;101505.66;5056944;28;20057;-87
2023/04/16 06:06:17;;;;;;;22.45;8.52;;;;;;;9.03;100.00;101526.28;5038682;28;20063;-88
2023/04/16 06:08:44;;;;;;;24.77;10.85;;;;;;;8.70;100.00;101493.78;5057234;28;20049;-87
2023/04/16 06:11:11;;;;;;;20.83;7.57;;;;;;;8.82;100.00;101506.63;5056423;28;20049;-88
2023/04/16 06:13:38;;;;;;;21.85;8.65;;;;;;;8.76;100.00;101469.31;5037717;28;20053;-87
2023/04/16 06:16:05;;;;;;;20.77;9.45;;;;;;;8.81;100.00;101494.44;5038867;28;20057;-89
2023/04/16 06:18:32;;;;;;;17.35;6.85;;;;;;;9.05;100.00;101532.34;5038674;28;20052;-88
2023/04/16 06:20:59;;;;;;;18.00;6.20;;;;;;;8.86;100.00;101481.31;5038413;28;20052;-88
2023/04/16 06:23:25;;;;;;;14.70;5.95;;;;;;;8.89;100.00;101476.06;5038701;28;20368;-88
2023/04/16 06:25:53;;;;;;;14.98;6.55;;;;;;;9.31;100.00;101537.06;5039306;28;20483;-87
2023/04/16 06:28:19;;;;;;;21.42;6.90;;;;;;;8.97;100.00;101461.06;5055184;28;20045;-89
2023/04/16 06:30:46;;;;;;;18.00;6.35;;;;;;;9.38;100.00;101516.03;5056446;28;20056;-89
2023/04/16 06:33:13;;;;;;;17.33;7.20;;;;;;;9.11;100.00;101500.00;5038149;28;20107;-88
2023/04/16 06:35:40;;;;;;;19.60;6.43;;;;;;;9.32;100.00;101520.47;5056414;28;20379;-88
2023/04/16 06:38:07;;;;;;;16.48;6.93;;;;;;;9.27;100.00;101495.34;5038909;28;20399;-88
2023/04/16 06:40:35;;;;;;;17.73;7.40;;;;;;;9.52;100.00;101523.59;5042115;28;20071;-88
2023/04/16 06:43:02;;;;;;;18.00;6.50;;;;;;;10.58;100.00;101531.69;5038368;28;20053;-89
2023/04/16 06:45:29;;;;;;;15.52;5.97;;;;;;;11.22;100.00;101479.31;5057417;28;20485;-89
2023/04/16 06:47:57;;;;;;;13.07;5.10;;;;;;;11.04;100.00;101472.84;5057475;28;20040;-89
2023/04/16 06:50:25;;;;;;;15.30;4.95;;;;;;;11.46;100.00;101563.44;5039409;28;20049;-89
2023/04/16 06:52:52;;;;;;;16.25;6.07;;;;;;;11.02;100.00;101538.38;5035685;28;20057;-90
2023/04/16 06:55:19;;;;;;;17.27;4.88;;;;;;;11.71;100.00;101561.81;5049928;28;20049;-88
2023/04/16 06:57:46;;;;;;;15.75;5.03;;;;;;;10.98;100.00;101501.84;5038769;28;20060;-87
2023/04/16 07:00:13;;;;;;;16.73;5.80;;;;;;;11.30;100.00;101482.59;5037709;28;20063;-87
2023/04/16 07:02:40;;;;;;;16.38;5.03;;;;;;;12.19;100.00;101496.56;5054927;28;20132;-88
2023/04/16 07:05:07;;;;;;;14.75;4.57;;;;;;;12.08;100.00;101489.88;5056283;28;20053;-88
2023/04/16 07:07:34;;;;;;;13.55;4.50;;;;;;;12.30;100.00;101550.44;5037985;28;20056;-87
2023/04/16 07:10:01;;;;;;;10.60;3.58;;;;;;;12.33;100.00;101512.72;5048693;28;20049;-88
2023/04/16 07:12:28;;;;;;;12.43;3.30;;;;;;;11.95;100.00;101527.91;5037999;28;20055;-90
2023/04/16 07:14:57;;;;;;;12.38;3.75;;;;;;;11.96;100.00;101542.75;5055356;28;20056;-85
2023/04/16 07:17:24;;;;;;;17.20;4.80;;;;;;;11.49;100.00;101500.41;5037406;28;21730;-88
2023/04/16 07:19:51;;;;;;;12.38;3.65;;;;;;;11.77;100.00;101559.03;5055605;28;20107;-89
2023/04/16 07:22:17;;;;;;;11.30;2.97;;;;;;;12.23;100.00;101574.31;5054696;28;20041;-89
2023/04/16 07:24:44;;;;;;;10.68;3.25;;;;;;;12.59;100.00;101542.53;5055052;28;20056;-87
2023/04/16 07:27:11;;;;;;;12.95;2.55;;;;;;;12.80;100.00;101533.06;5037604;28;20053;-88
2023/04/16 07:29:38;;;;;;;11.60;3.42;;;;;;;12.63;100.00;101544.16;5037730;28;20052;-88
2023/04/16 07:32:06;;;;;;;14.07;2.85;;;;;;;13.16;100.00;101583.53;5054552;28;20048;-90
2023/04/16 07:34:33;;;;;;;12.07;3.33;;;;;;;12.51;100.00;101532.28;5042896;28;20053;-88
2023/04/16 07:36:59;;;;;;;11.38;2.70;;;;;;;12.85;100.00;101510.97;5024812;28;20067;-87
2023/04/16 07:39:26;;;;;;;11.40;2.80;;;;;;;13.06;100.00;101548.78;5031565;28;20049;-89
2023/04/16 07:41:53;;;;;;;11.93;3.08;;;;;;;12.69;100.00;101551.81;5036279;28;20095;-90
2023/04/16 07:44:20;;;;;;;8.88;2.05;;;;;;;12.75;100.00;101542.88;5036604;28;20056;-87
2023/04/16 07:46:47;;;;;;;8.93;2.33;;;;;;;13.06;100.00;101558.47;5045366;28;20057;-90
2023/04/16 07:49:14;;;;;;;10.82;2.30;;;;;;;13.04;100.00;101569.03;5039630;28;20088;-89
2023/04/16 07:51:41;;;;;;;9.25;1.85;;;;;;;12.78;100.00;101532.25;5038415;28;20049;-88
2023/04/16 07:54:08;;;;;;;7.90;2.47;;;;;;;12.68;100.00;101523.84;5039699;28;20056;-89
2023/04/16 07:56:35;;;;;;;7.22;1.50;;;;;;;13.01;100.00;101515.69;5038687;28;20052;-88
2023/04/16 07:59:02;;;;;;;4.30;1.35;;;;;;;13.25;100.00;101551.63;5038649;28;20060;-88
2023/04/16 08:01:48;;;;;;;8.73;1.63;;;;;;;13.00;100.00;101556.91;5041212;28;20464;-89
2023/04/16 08:04:21;;;;;;;5.68;1.42;;;;;;;13.37;100.00;101565.28;5037815;28;20044;-89
2023/04/16 08:06:50;;;;;;;6.40;1.52;;;;;;;13.39;100.00;101590.63;5056074;28;20055;-89
2023/04/16 08:09:18;;;;;;;7.93;1.85;;;;;;;12.98;100.00;101558.72;5050783;28;20049;-90
2023/04/16 08:11:45;;;;;;;6.03;1.83;;;;;;;13.55;100.00;101596.19;5056337;28;20063;-90
2023/04/16 08:14:12;;;;;;;7.72;1.70;;;;;;;13.24;100.00;101599.03;5056755;28;20053;-90
2023/04/16 08:16:39;;;;;;;5.35;1.58;;;;;;;12.52;100.00;101532.22;5056089;28;20118;-90
2023/04/16 08:19:06;;;;;;;7.38;1.55;;;;;;;13.43;100.00;101622.94;5037911;28;20049;-89
2023/04/16 08:21:33;;;;;;;9.40;2.00;;;;;;;13.12;100.00;101553.00;5038461;28;20049;-90
2023/04/16 08:24:00;;;;;;;6.95;1.45;;;;;;;13.04;100.00;101529.59;5038839;28;20056;-89
2023/04/16 08:26:27;;;;;;;7.18;1.70;;;;;;;13.11;100.00;101548.63;5057056;28;20714;-90
2023/04/16 08:28:53;;;;;;;6.20;1.85;;;;;;;13.60;100.00;101598.66;5039495;28;20049;-89
2023/04/16 08:31:20;;;;;;;6.80;1.80;;;;;;;13.54;100.00;101607.63;5043237;28;20048;-89
2023/04/16 08:33:47;;;;;;;5.72;1.70;;;;;;;13.25;100.00;101585.81;5039346;28;20136;-90
2023/04/16 08:36:14;;;;;;;6.82;1.50;;;;;;;13.45;100.00;101598.28;5038858;28;20056;-90
2023/04/16 08:38:41;;;;;;;6.28;1.65;;;;;;;13.50;100.00;101581.50;5039695;28;20509;-90
2023/04/16 08:41:11;;;;;;;7.38;1.70;;;;;;;13.33;100.00;101543.50;5022234;28;20041;-89
2023/04/16 08:43:43;;;;;;;4.15;1.33;;;;;;;13.33;100.00;101582.94;5037811;28;20046;-90
2023/04/16 08:46:11;;;;;;;9.18;1.67;;;;;;;12.90;100.00;101542.34;5028629;28;20075;-91
2023/04/16 08:48:41;;;;;;;6.32;1.60;;;;;;;13.13;100.00;101577.50;5060714;28;20049;-90
2023/04/16 08:51:09;;;;;;;8.48;1.85;;;;;;;13.08;100.00;101556.63;5041787;28;20048;-90
2023/04/16 08:53:52;;;;;;;7.00;2.05;;;;;;;13.27;100.00;101589.25;5060329;28;20060;-90
2023/04/16 08:56:23;;;;;;;9.90;1.90;;;;;;;13.36;100.00;101576.72;5060717;28;20056;-90
2023/04/16 08:58:52;;;;;;;8.30;1.70;;;;;;;13.74;100.00;101617.44;5043245;28;20045;-90
2023/04/16 09:01:20;;;;;;;7.93;2.08;;;;;;;13.25;100.00;101580.56;5041798;28;20053;-90
2023/04/16 09:03:47;;;;;;;5.93;1.50;;;;;;;13.57;100.00;101578.56;5059933;28;20073;-90
2023/04/16 09:06:15;;;;;;;5.72;1.45;;;;;;;13.97;100.00;101585.00;5042622;28;20478;-89
2023/04/16 09:08:46;;;;;;;6.68;1.50;;;;;;;14.28;100.00;101577.66;5060109;28;20084;-90
2023/04/16 09:11:16;;;;;;;7.47;1.80;;;;;;;14.13;100.00;101561.56;5039125;28;20054;-90
2023/04/16 09:13:45;;;;;;;6.50;1.40;;;;;;;13.88;100.00;101537.09;5041822;28;20045;-89
2023/04/16 09:16:12;;;;;;;8.95;2.35;;;;;;;13.84;100.00;101570.56;5041362;28;20057;-90
2023/04/16 09:18:40;;;;;;;6.57;1.70;;;;;;;13.25;100.00;101587.59;5042601;28;20071;-90
2023/04/16 09:21:09;;;;;;;4.63;1.27;;;;;;;13.36;100.00;101559.16;5059084;28;20053;-89
2023/04/16 09:23:37;;;;;;;6.13;1.50;;;;;;;13.24;100.00;101549.06;5042015;28;20049;-89
2023/04/16 09:26:04;;;;;;;7.97;1.73;;;;;;;13.66;100.00;101627.38;5041799;28;20144;-90
2023/04/16 09:28:39;;;;;;;6.45;1.80;;;;;;;13.32;100.00;101565.47;5059144;28;20135;-89
2023/04/16 09:31:10;;;;;;;6.32;1.45;;;;;;;13.22;100.00;101567.50;5041315;28;20044;-90
2023/04/16 09:33:37;;;;;;;10.68;2.03;;;;;;;13.05;100.00;101601.41;5039935;28;20057;-89
2023/04/16 09:36:05;;;;;;;9.35;1.83;;;;;;;13.22;100.00;101590.34;5041030;28;20060;-89
2023/04/16 09:38:49;;;;;;;6.00;1.60;;;;;;;12.86;100.00;101574.91;5040932;28;20049;-89
2023/04/16 09:41:17;;;;;;;5.53;1.60;;;;;;;12.35;100.00;101566.06;5039473;28;20053;-89
2023/04/16 09:43:56;;;;;;;8.45;1.60;;;;;;;12.42;100.00;101570.22;5041244;28;20059;-89
2023/04/16 09:46:32;;;;;;;6.88;1.73;;;;;;;12.87;100.00;101637.94;5029254;28;20057;-89
2023/04/16 09:49:12;;;;;;;7.18;1.80;;;;;;;13.20;100.00;101631.59;5040602;28;20592;-89
2023/04/16 09:51:44;;;;;;;7.95;2.00;;;;;;;12.71;100.00;101639.34;5057060;28;20055;-89
2023/04/16 09:54:11;;;;;;;5.40;1.75;;;;;;;12.89;100.00;101632.63;5039903;28;20091;-88
2023/04/16 09:56:42;;;;;;;8.15;1.65;;;;;;;12.97;100.00;101616.59;5051870;28;20049;-87
2023/04/16 09:59:22;;;;;;;4.75;1.52;;;;;;;12.84;100.00;101589.88;5028753;28;20133;-88
2023/04/16 10:01:51;;;;;;;8.75;1.80;;;;;;;12.77;100.00;101586.59;5054374;28;20167;-89
2023/04/16 10:04:50;;;;;;;6.18;1.90;;;;;;;12.60;100.00;101587.13;5042650;28;20059;-88
2023/04/16 10:07:18;;;;;;;7.20;1.70;;;;;;;13.10;100.00;101570.56;5039640;28;20526;-88
2023/04/16 10:09:47;;;;;;;3.95;1.10;;;;;;;13.48;100.00;101624.50;5039980;28;20059;-88
2023/04/16 10:12:15;;;;;;;5.90;1.58;;;;;;;13.32;100.00;101602.28;5038652;28;20076;-88
2023/04/16 10:14:42;;;;;;;4.47;1.30;;;;;;;13.54;100.00;101612.03;5056257;28;20135;-87
2023/04/16 10:17:08;;;;;;;5.35;1.20;;;;;;;13.64;100.00;101595.84;5057169;28;20060;-88
2023/04/16 10:19:36;;;;;;;5.03;1.35;;;;;;;13.61;100.00;101626.69;5040979;28;20053;-88
2023/04/16 10:22:03;;;;;;;6.40;1.67;;;;;;;13.70;100.00;101633.38;5041200;28;20045;-89
2023/04/16 10:24:32;;;;;;;5.00;1.80;;;;;;;13.72;100.00;101606.09;5044027;28;20053;-92
2023/04/16 10:27:05;;;;;;;6.95;1.80;;;;;;;13.49;100.00;101583.25;5046342;28;20057;-89
2023/04/16 10:29:33;;;;;;;5.28;1.33;;;;;;;13.60;100.00;101596.03;5050128;28;20483;-89
2023/04/16 10:32:00;;;;;;;5.03;1.40;;;;;;;13.63;100.00;101574.84;5039232;28;20045;-90
2023/04/16 10:34:28;;;;;;;5.32;1.40;;;;;;;13.24;100.00;101567.47;5055287;28;20048;-90
2023/04/16 10:36:54;;;;;;;5.90;1.50;;;;;;;13.20;100.00;101614.03;5043189;28;20060;-90
2023/04/16 10:39:24;;;;;;;8.68;1.75;;;;;;;13.08;100.00;101646.00;5057743;28;20056;-87
2023/04/16 10:42:09;;;;;;;5.95;1.60;;;;;;;12.67;100.00;101598.31;5040000;28;20037;-87
2023/04/16 10:44:36;;;;;;;7.30;1.70;;;;;;;12.68;100.00;101587.75;5039746;28;20505;-88
2023/04/16 10:47:11;;;;;;;4.63;1.60;;;;;;;12.56;100.00;101603.06;5039010;28;20407;-84
2023/04/16 10:49:38;;;;;;;6.45;1.52;;;;;;;12.61;100.00;101616.91;5048733;28;20434;-84
2023/04/16 10:52:15;;;;;;;8.65;2.15;;;;;;;12.66;100.00;101628.09;5036327;28;20040;-84
2023/04/16 10:54:58;;;;;;;5.40;1.50;;;;;;;12.86;100.00;101590.69;5049212;28;20053;-87
2023/04/16 10:57:28;;;;;;;8.95;2.17;;;;;;;12.64;100.00;101601.91;5045105;28;20057;-86
2023/04/16 10:59:55;;;;;;;9.02;2.13;;;;;;;12.63;100.00;101576.53;5046612;28;20049;-86
2023/04/16 11:02:27;;;;;;;8.20;1.83;;;;;;;13.20;100.00;101644.75;5039400;28;20049;-85
2023/04/16 11:04:56;;;;;;;7.13;1.70;;;;;;;13.18;100.00;101647.44;5040235;28;20049;-88
2023/04/16 11:07:33;;;;;;;6.72;1.80;;;;;;;12.79;100.00;101605.78;5036866;28;20403;-86
2023/04/16 11:10:04;;;;;;;10.65;2.08;;;;;;;12.81;100.00;101632.88;5053501;28;20071;-86
2023/04/16 11:12:36;;;;;;;9.25;1.95;;;;;;;12.71;100.00;101624.44;5034684;28;20076;-86
2023/04/16 11:15:08;;;;;;;12.23;1.63;;;;;;;13.28;100.00;101629.59;5036009;28;20466;-86
2023/04/16 11:17:37;;;;;;;7.03;1.70;;;;;;;13.44;100.00;101633.41;5035646;28;20486;-85
2023/04/16 11:20:09;;;;;;;8.85;1.88;;;;;;;12.91;100.00;101573.00;5053895;28;20669;-86